Time;durP1;ratioP1;P1;durP2;ratioP2;P2;SDS_P1;SDS_P2;PMS_P1;PMS_P2;Temp;Humidity;BMP_temperature;BMP_pressure;BME280_temperature;BME280_humidity;BME280_pressure;Samples;Min_cycle;Max_cycle;Signal;HPM_P1;HPM_P2
2022/06/27 00:01:27;;;;;;;27.48;4.13;;;;;;;43.37;21.04;100934.16;5093721;28;20468;-62
2022/06/27 00:03:53;;;;;;;18.23;3.58;;;;;;;43.59;20.21;100938.75;5083463;28;20042;-61
2022/06/27 00:06:20;;;;;;;17.25;3.13;;;;;;;42.97;20.74;100953.78;5073482;28;20044;-61
2022/06/27 00:08:50;;;;;;;13.50;2.92;;;;;;;42.54;20.82;100950.09;5073130;28;20036;-62
2022/06/27 00:11:18;;;;;;;15.43;2.50;;;;;;;42.99;20.38;100956.94;5073765;28;20493;-62
2022/06/27 00:13:45;;;;;;;18.27;3.42;;;;;;;42.71;21.19;100957.03;5073769;28;20063;-62
2022/06/27 00:16:12;;;;;;;34.72;3.10;;;;;;;42.09;21.65;100956.69;5073964;28;20032;-62
2022/06/27 00:18:39;;;;;;;24.55;3.83;;;;;;;41.94;21.58;100948.75;5072919;28;20068;-61
2022/06/27 00:21:06;;;;;;;15.07;2.97;;;;;;;42.49;21.17;100948.69;5073581;28;20082;-62
2022/06/27 00:23:33;;;;;;;17.33;2.70;;;;;;;41.85;21.85;100936.56;5072819;28;20035;-61
2022/06/27 00:26:00;;;;;;;24.95;3.40;;;;;;;41.32;22.59;100934.75;5084037;28;20085;-61
2022/06/27 00:28:26;;;;;;;15.95;3.05;;;;;;;42.30;21.37;100943.47;5097694;28;20032;-61
2022/06/27 00:30:53;;;;;;;13.60;2.90;;;;;;;41.81;22.31;100953.81;5073882;28;20119;-61
2022/06/27 00:33:20;;;;;;;15.93;2.90;;;;;;;40.78;23.32;100948.78;5088341;28;20048;-62
2022/06/27 00:35:49;;;;;;;13.00;2.78;;;;;;;41.75;22.27;100941.47;5092409;28;20036;-61
2022/06/27 00:38:16;;;;;;;19.63;3.05;;;;;;;41.77;21.94;100940.97;5091763;28;20070;-61
2022/06/27 00:40:42;;;;;;;14.63;2.83;;;;;;;40.93;23.27;100947.75;5073523;28;20117;-62
2022/06/27 00:43:09;;;;;;;43.47;3.42;;;;;;;41.21;23.31;100942.13;5073650;28;20137;-62
2022/06/27 00:45:36;;;;;;;20.98;3.28;;;;;;;40.94;23.98;100940.81;5072251;28;20039;-61
2022/06/27 00:48:03;;;;;;;21.48;3.53;;;;;;;40.82;24.35;100932.34;5080623;28;20051;-61
2022/06/27 00:50:30;;;;;;;23.10;3.17;;;;;;;40.86;24.19;100930.94;5072973;28;20037;-60
2022/06/27 00:53:00;;;;;;;12.77;3.10;;;;;;;41.02;24.03;100941.28;5072914;28;20116;-61
2022/06/27 00:55:29;;;;;;;22.67;3.13;;;;;;;41.02;24.09;100939.22;5055659;28;20398;-61
2022/06/27 00:57:56;;;;;;;20.88;3.38;;;;;;;40.91;24.01;100944.56;5076195;28;20103;-61
2022/06/27 01:00:23;;;;;;;20.58;3.10;;;;;;;41.33;23.73;100941.25;5072822;28;20378;-60
2022/06/27 01:02:50;;;;;;;17.50;3.30;;;;;;;40.19;25.48;100942.88;5073010;28;20348;-61
2022/06/27 01:05:19;;;;;;;15.70;3.00;;;;;;;40.68;24.60;100940.19;5073954;28;20036;-61
2022/06/27 01:07:46;;;;;;;22.98;3.25;;;;;;;40.80;24.35;100954.81;5085143;28;20039;-61
2022/06/27 01:10:13;;;;;;;22.58;3.17;;;;;;;40.38;25.17;100943.78;5072143;28;20032;-62
2022/06/27 01:12:41;;;;;;;26.13;3.20;;;;;;;40.87;24.83;100943.94;5073418;28;20096;-61
2022/06/27 01:15:10;;;;;;;17.60;3.30;;;;;;;40.98;24.34;100944.28;5072422;28;20024;-61
2022/06/27 01:17:38;;;;;;;16.55;3.20;;;;;;;40.40;25.51;100955.56;5087042;28;20178;-62
2022/06/27 01:20:06;;;;;;;23.42;3.35;;;;;;;40.01;25.89;100951.28;5090341;28;20122;-61
2022/06/27 01:22:34;;;;;;;24.25;3.50;;;;;;;40.53;25.16;100953.41;5085748;28;20044;-61
2022/06/27 01:25:05;;;;;;;18.30;3.38;;;;;;;40.28;25.82;100945.81;5090302;28;20032;-62
2022/06/27 01:27:32;;;;;;;21.27;3.25;;;;;;;40.33;26.08;100956.59;5090757;28;20039;-63
2022/06/27 01:30:02;;;;;;;17.85;3.67;;;;;;;40.26;26.20;100945.47;5088722;28;20023;-63
2022/06/27 01:32:30;;;;;;;20.90;3.42;;;;;;;40.21;25.85;100956.66;5089849;28;20035;-59
2022/06/27 01:34:57;;;;;;;13.98;2.60;;;;;;;39.90;26.37;100951.66;5087112;28;20371;-60
2022/06/27 01:37:24;;;;;;;20.02;3.05;;;;;;;39.40;26.95;100961.13;5088361;28;20249;-60
2022/06/27 01:39:51;;;;;;;12.18;2.78;;;;;;;39.09;27.40;100938.22;5087166;28;20499;-62
2022/06/27 01:42:18;;;;;;;23.90;3.00;;;;;;;39.28;27.31;100955.00;5086817;28;20073;-61
2022/06/27 01:44:45;;;;;;;12.95;2.60;;;;;;;39.25;27.36;100958.78;5077384;28;20123;-62
2022/06/27 01:47:13;;;;;;;19.30;2.80;;;;;;;39.07;27.82;100978.44;5079340;28;20558;-62
2022/06/27 01:49:55;;;;;;;16.58;2.65;;;;;;;39.04;27.78;100970.81;5084985;28;20044;-63
2022/06/27 01:52:26;;;;;;;12.73;3.05;;;;;;;39.07;28.06;100974.78;5072886;28;20131;-62
2022/06/27 01:54:54;;;;;;;14.65;3.30;;;;;;;38.92;27.93;100988.66;5080080;28;20425;-62
2022/06/27 01:57:22;;;;;;;15.05;2.97;;;;;;;38.52;28.90;100994.72;5072876;28;20024;-62
2022/06/27 01:59:53;;;;;;;16.50;3.05;;;;;;;38.59;28.74;100985.97;5086344;28;20782;-62
2022/06/27 02:02:19;;;;;;;12.30;3.17;;;;;;;38.39;29.24;100991.06;5074739;28;20037;-62
2022/06/27 02:04:48;;;;;;;20.15;3.55;;;;;;;38.29;29.54;100997.88;5075508;28;20028;-63
2022/06/27 02:07:17;;;;;;;15.25;2.92;;;;;;;38.16;29.91;100999.81;5085729;28;20474;-61
2022/06/27 02:09:45;;;;;;;16.35;3.30;;;;;;;38.13;30.51;100995.03;5086598;28;20028;-61
2022/06/27 02:12:18;;;;;;;17.05;3.47;;;;;;;37.77;30.93;101001.69;5070517;28;20494;-61
2022/06/27 02:14:51;;;;;;;14.70;3.22;;;;;;;37.68;30.82;101002.28;5079747;28;20086;-60
2022/06/27 02:17:23;;;;;;;24.48;3.53;;;;;;;37.69;30.97;101003.88;5086949;28;20033;-61
2022/06/27 02:19:50;;;;;;;24.05;4.85;;;;;;;37.56;30.88;101011.53;5070777;28;20035;-62
2022/06/27 02:22:17;;;;;;;22.77;5.00;;;;;;;37.39;31.59;101007.91;5070560;28;20062;-61
2022/06/27 02:24:44;;;;;;;19.70;4.05;;;;;;;37.26;31.91;101004.16;5072041;28;20024;-60
2022/06/27 02:27:12;;;;;;;22.40;4.47;;;;;;;37.10;32.35;101012.63;5086205;28;20032;-60
2022/06/27 02:29:39;;;;;;;28.17;4.40;;;;;;;36.83;33.48;101021.34;5092195;28;20052;-61
2022/06/27 02:32:06;;;;;;;29.25;4.43;;;;;;;36.69;33.73;101010.28;5093634;28;20040;-60
2022/06/27 02:34:37;;;;;;;25.90;5.00;;;;;;;36.53;34.21;101025.97;5076149;28;20127;-61
2022/06/27 02:37:04;;;;;;;28.92;4.00;;;;;;;36.34;34.78;101017.50;5077053;28;20478;-61
2022/06/27 02:39:36;;;;;;;25.20;4.72;;;;;;;36.22;35.60;101033.06;5094134;28;20126;-60
2022/06/27 02:42:06;;;;;;;25.48;3.92;;;;;;;36.08;35.85;101033.31;5080588;28;20386;-61
2022/06/27 02:44:34;;;;;;;31.05;4.43;;;;;;;35.87;35.78;101051.47;5074878;28;20047;-61
2022/06/27 02:47:02;;;;;;;19.42;4.15;;;;;;;35.79;36.47;101055.66;5081473;28;20085;-60
2022/06/27 02:49:28;;;;;;;26.40;4.38;;;;;;;35.66;36.35;101061.91;5086283;28;20020;-60
2022/06/27 02:52:23;;;;;;;29.58;4.25;;;;;;;35.48;37.22;101066.25;5073691;28;20491;-61
2022/06/27 02:55:01;;;;;;;30.13;3.95;;;;;;;35.30;37.63;101074.97;5078097;28;20024;-61
2022/06/27 02:57:44;;;;;;;32.67;4.00;;;;;;;35.22;37.06;101074.28;5078217;28;20040;-61
2022/06/27 03:00:12;;;;;;;31.88;4.55;;;;;;;35.02;37.25;101077.00;5086594;28;20029;-61
2022/06/27 03:02:41;;;;;;;28.73;4.90;;;;;;;34.94;37.85;101088.78;5081360;28;20063;-60
2022/06/27 03:05:27;;;;;;;29.55;4.85;;;;;;;34.78;38.62;101104.28;5090098;28;20046;-61
2022/06/27 03:07:54;;;;;;;32.22;5.28;;;;;;;34.62;38.92;101101.25;5088111;28;20132;-61
2022/06/27 03:10:22;;;;;;;31.15;5.07;;;;;;;34.52;38.82;101100.16;5075460;28;20025;-61
2022/06/27 03:12:50;;;;;;;35.85;5.30;;;;;;;34.49;39.36;101106.66;5079792;28;20029;-62
2022/06/27 03:15:17;;;;;;;21.00;4.90;;;;;;;34.36;39.31;101090.66;5079587;28;20025;-60
2022/06/27 03:17:45;;;;;;;25.38;5.32;;;;;;;34.37;39.73;101106.38;5087929;28;20056;-60
2022/06/27 03:20:41;;;;;;;27.83;4.80;;;;;;;34.33;39.73;101106.38;5037108;28;20091;-62
2022/06/27 03:23:15;;;;;;;;;;;;;;;34.33;40.06;101103.56;5085181;28;20463;-61
2022/06/27 03:25:46;;;;;;;26.17;4.60;;;;;;;34.24;40.20;101106.06;5075794;28;20699;-61
2022/06/27 03:28:13;;;;;;;19.10;4.15;;;;;;;34.02;40.47;101107.47;5087261;28;20413;-60
2022/06/27 03:30:42;;;;;;;22.88;4.53;;;;;;;33.91;40.41;101116.03;5082776;28;20031;-60
2022/06/27 03:33:09;;;;;;;22.38;4.85;;;;;;;33.99;40.29;101123.22;5073175;28;20094;-60
2022/06/27 03:35:52;;;;;;;20.80;5.47;;;;;;;33.79;40.92;101120.13;5074801;28;20059;-61
2022/06/27 03:38:18;;;;;;;24.00;6.38;;;;;;;33.76;41.49;101123.78;5083374;28;20487;-60
2022/06/27 03:40:45;;;;;;;25.55;5.55;;;;;;;33.56;41.60;101125.50;5086510;28;20050;-60
2022/06/27 03:43:12;;;;;;;23.13;4.95;;;;;;;33.63;42.22;101126.28;5090852;28;20028;-60
2022/06/27 03:45:39;;;;;;;29.55;5.47;;;;;;;33.62;43.07;101138.78;5092308;28;20711;-60
2022/06/27 03:48:06;;;;;;;41.08;6.13;;;;;;;33.60;42.67;101135.56;5091233;28;20115;-60
2022/06/27 03:50:53;;;;;;;30.13;5.82;;;;;;;33.41;43.22;101124.03;5079836;28;20032;-60
2022/06/27 03:53:21;;;;;;;31.15;6.57;;;;;;;33.46;44.14;101140.50;5090815;28;20128;-60
2022/06/27 03:55:47;;;;;;;30.02;6.60;;;;;;;33.41;43.59;101143.75;5092282;28;20035;-60
2022/06/27 03:58:14;;;;;;;33.88;7.95;;;;;;;33.38;44.05;101144.53;5092065;28;20032;-60
2022/06/27 04:00:41;;;;;;;35.42;6.45;;;;;;;33.27;44.46;101139.75;5092153;28;20123;-60
2022/06/27 04:03:08;;;;;;;15.55;6.47;;;;;;;33.17;45.32;101151.88;5080662;28;20038;-60
2022/06/27 04:05:42;;;;;;;;;;;;;;;33.07;45.59;101164.00;5088011;28;20073;-60
2022/06/27 04:08:09;;;;;;;33.80;5.57;;;;;;;32.90;46.59;101164.88;5076633;28;20297;-61
2022/06/27 04:10:39;;;;;;;20.35;5.50;;;;;;;32.73;47.22;101167.28;5092444;28;20035;-61
2022/06/27 04:13:06;;;;;;;21.50;4.82;;;;;;;32.71;47.52;101164.06;5078742;28;20469;-60
2022/06/27 04:15:51;;;;;;;20.92;5.00;;;;;;;32.78;47.11;101171.69;5087651;28;20543;-60
2022/06/27 04:18:36;;;;;;;26.73;5.07;;;;;;;32.64;46.76;101180.97;5080378;28;20047;-60
2022/06/27 04:21:09;;;;;;;103.30;9.35;;;;;;;32.60;49.58;101188.63;5089843;28;20119;-60
2022/06/27 04:24:03;;;;;;;28.50;4.53;;;;;;;32.49;48.39;101198.28;5091528;28;20551;-60
2022/06/27 04:26:36;;;;;;;20.30;4.57;;;;;;;32.28;49.93;101187.84;5072968;28;20036;-60
2022/06/27 04:29:03;;;;;;;21.77;4.32;;;;;;;32.33;48.90;101198.72;5089957;28;20055;-60
2022/06/27 04:31:30;;;;;;;17.35;3.65;;;;;;;32.37;48.57;101222.81;5089146;28;20020;-60
2022/06/27 04:33:57;;;;;;;20.65;3.92;;;;;;;32.33;49.17;101222.00;5089528;28;20047;-61
2022/06/27 04:36:25;;;;;;;15.20;3.83;;;;;;;32.28;49.02;101224.41;5090267;28;20046;-61
2022/06/27 04:38:55;;;;;;;18.00;3.80;;;;;;;32.22;49.87;101237.25;5089362;28;20402;-61
2022/06/27 04:41:50;;;;;;;;;;;;;;;32.05;50.33;101250.88;5087429;28;20122;-60
2022/06/27 04:44:21;;;;;;;18.73;4.07;;;;;;;32.06;50.21;101243.25;5094243;28;20010;-59
2022/06/27 04:46:48;;;;;;;19.55;4.30;;;;;;;32.04;50.66;101248.47;5093724;28;20386;-61
2022/06/27 04:49:31;;;;;;;17.65;4.25;;;;;;;32.01;49.79;101272.56;5090726;28;20474;-61
2022/06/27 04:52:00;;;;;;;17.35;4.40;;;;;;;32.06;49.58;101271.38;5092216;28;20402;-61
2022/06/27 04:54:35;;;;;;;19.17;5.00;;;;;;;32.00;49.42;101282.22;5091404;28;20035;-60
2022/06/27 04:57:03;;;;;;;21.65;4.93;;;;;;;31.95;49.53;101285.38;5090548;28;20035;-60
2022/06/27 04:59:32;;;;;;;19.65;5.82;;;;;;;31.95;49.26;101285.38;5090255;28;20035;-60
2022/06/27 05:02:09;;;;;;;17.40;5.70;;;;;;;31.91;50.08;101283.78;5085906;28;20036;-61
2022/06/27 05:04:37;;;;;;;18.77;6.53;;;;;;;31.80;49.47;101283.75;5093079;28;20342;-60
2022/06/27 05:07:04;;;;;;;24.13;6.97;;;;;;;31.75;49.78;101287.72;5070164;28;20040;-61
2022/06/27 05:09:31;;;;;;;22.25;6.78;;;;;;;31.69;49.13;101291.31;5078507;28;20037;-61
2022/06/27 05:11:58;;;;;;;17.63;5.65;;;;;;;31.80;49.06;101295.81;5093351;28;20489;-61
2022/06/27 05:14:24;;;;;;;19.63;5.70;;;;;;;31.80;48.78;101307.06;5086048;28;20043;-62
2022/06/27 05:16:54;;;;;;;22.05;6.43;;;;;;;31.75;49.26;101307.41;5081855;28;20058;-62
2022/06/27 05:19:25;;;;;;;24.25;6.35;;;;;;;31.57;49.26;101310.09;5096832;28;20043;-60
2022/06/27 05:21:52;;;;;;;23.92;6.68;;;;;;;31.64;49.01;101314.19;5093256;28;20024;-60
2022/06/27 05:24:21;;;;;;;17.75;5.82;;;;;;;31.69;48.99;101319.41;5093775;28;20024;-60
2022/06/27 05:26:49;;;;;;;18.75;5.80;;;;;;;31.73;47.78;101317.44;5092660;28;20059;-60
2022/06/27 05:29:16;;;;;;;15.48;6.05;;;;;;;31.62;48.47;101322.19;5090012;28;20075;-61
2022/06/27 05:31:43;;;;;;;19.05;6.07;;;;;;;31.65;48.13;101327.03;5091155;28;20032;-61
2022/06/27 05:34:10;;;;;;;14.93;6.00;;;;;;;31.67;47.62;101324.63;5092686;28;20048;-60
2022/06/27 05:36:37;;;;;;;17.30;5.50;;;;;;;31.56;48.34;101325.38;5096321;28;20100;-60
2022/06/27 05:39:05;;;;;;;16.27;5.40;;;;;;;31.58;47.58;101334.19;5090902;28;20023;-61
2022/06/27 05:41:32;;;;;;;21.10;6.10;;;;;;;31.49;48.39;101338.59;5099901;27;20028;-61
2022/06/27 05:44:05;;;;;;;17.17;6.18;;;;;;;31.45;49.33;101349.81;5118320;27;20032;-60
2022/06/27 05:46:32;;;;;;;14.27;4.72;;;;;;;31.26;51.05;101364.13;5095263;28;20043;-59
2022/06/27 05:49:19;;;;;;;16.92;3.95;;;;;;;31.07;51.65;101409.28;5082423;28;20421;-60
2022/06/27 05:51:52;;;;;;;26.63;3.95;;;;;;;30.96;52.54;101431.63;5087690;28;20444;-59
2022/06/27 05:54:21;;;;;;;36.38;4.97;;;;;;;31.02;51.91;101418.03;5103725;27;20040;-59
2022/06/27 05:56:49;;;;;;;48.95;5.80;;;;;;;31.07;50.65;101438.16;5089019;28;20062;-60
2022/06/27 05:59:16;;;;;;;103.32;7.95;;;;;;;31.10;49.64;101414.94;5085080;28;20033;-61
2022/06/27 06:01:46;;;;;;;63.53;5.45;;;;;;;31.21;49.98;101403.78;5084642;28;20098;-61
2022/06/27 06:04:14;;;;;;;35.97;4.82;;;;;;;31.14;48.99;101404.53;5085967;28;20075;-60
2022/06/27 06:06:43;;;;;;;34.85;3.85;;;;;;;31.24;47.68;101420.69;5087917;28;20023;-60
2022/06/27 06:09:11;;;;;;;24.98;3.72;;;;;;;31.11;48.42;101433.38;5086193;28;20036;-60
2022/06/27 06:11:39;;;;;;;25.38;4.35;;;;;;;30.95;50.27;101419.59;5083564;28;20477;-60
2022/06/27 06:14:08;;;;;;;21.05;3.42;;;;;;;31.00;49.86;101426.06;5087722;28;20028;-60
2022/06/27 06:16:35;;;;;;;17.77;4.18;;;;;;;31.02;49.69;101432.88;5091085;28;20429;-60
2022/06/27 06:19:03;;;;;;;14.82;3.45;;;;;;;31.06;49.11;101418.88;5090967;28;20039;-59
2022/06/27 06:21:30;;;;;;;18.08;3.70;;;;;;;31.03;47.05;101414.03;5092539;28;20110;-60
2022/06/27 06:23:57;;;;;;;16.90;3.80;;;;;;;31.12;47.12;101429.38;5091529;28;20040;-59
2022/06/27 06:26:24;;;;;;;15.98;4.00;;;;;;;31.18;45.95;101433.47;5090896;28;20028;-60
2022/06/27 06:28:53;;;;;;;15.35;3.83;;;;;;;31.20;45.48;101430.25;5088993;28;20170;-59
2022/06/27 06:31:23;;;;;;;14.05;3.17;;;;;;;31.33;44.82;101437.19;5091088;28;20076;-60
2022/06/27 06:34:01;;;;;;;23.88;3.47;;;;;;;31.18;45.72;101444.69;5090529;28;20051;-61
2022/06/27 06:36:29;;;;;;;16.75;4.18;;;;;;;31.18;45.48;101432.66;5090902;28;20043;-61
2022/06/27 06:38:57;;;;;;;15.23;5.18;;;;;;;31.00;46.18;101435.28;5094248;28;20024;-59
2022/06/27 06:41:24;;;;;;;18.60;5.38;;;;;;;30.82;46.80;101437.13;5106112;28;20175;-62
2022/06/27 06:43:51;;;;;;;17.35;4.93;;;;;;;30.71;47.25;101425.78;5094461;28;20161;-60
2022/06/27 06:46:30;;;;;;;22.38;4.85;;;;;;;30.71;48.17;101425.78;5121186;28;20036;-61
2022/06/27 06:49:05;;;;;;;13.80;4.53;;;;;;;30.76;48.06;101433.84;5100083;28;20031;-60
2022/06/27 06:51:36;;;;;;;13.05;4.88;;;;;;;30.78;48.53;101437.09;5090288;28;20035;-60
2022/06/27 06:54:05;;;;;;;9.77;4.47;;;;;;;30.74;48.82;101450.28;5092645;28;20028;-61
2022/06/27 06:56:33;;;;;;;12.95;3.90;;;;;;;30.81;48.59;101447.53;5081206;28;20020;-60
2022/06/27 06:59:03;;;;;;;18.60;3.92;;;;;;;30.98;47.79;101443.28;5086621;28;20073;-61
2022/06/27 07:01:35;;;;;;;18.40;3.17;;;;;;;31.12;47.36;101439.81;5085316;28;20032;-61
2022/06/27 07:04:03;;;;;;;15.10;3.13;;;;;;;31.02;47.13;101443.31;5082289;28;20032;-60
2022/06/27 07:06:31;;;;;;;15.38;3.20;;;;;;;30.96;47.64;101448.50;5083366;28;20016;-60
2022/06/27 07:08:59;;;;;;;15.93;2.88;;;;;;;30.89;48.38;101431.59;5090504;28;20543;-60
2022/06/27 07:11:28;;;;;;;16.50;3.33;;;;;;;30.98;47.74;101449.72;5089270;28;20032;-61
2022/06/27 07:13:59;;;;;;;15.02;2.65;;;;;;;30.92;48.23;101442.84;5097771;28;20030;-62
2022/06/27 07:16:26;;;;;;;17.92;3.03;;;;;;;30.94;48.16;101446.06;5104779;28;20032;-61
2022/06/27 07:18:58;;;;;;;12.30;2.80;;;;;;;30.91;48.32;101446.03;5096954;28;20158;-62
2022/06/27 07:21:28;;;;;;;13.48;2.92;;;;;;;30.86;48.26;101452.78;5094679;28;20043;-62
2022/06/27 07:23:55;;;;;;;22.58;3.30;;;;;;;30.76;49.12;101450.69;5096403;28;20035;-61
2022/06/27 07:26:23;;;;;;;18.75;2.88;;;;;;;30.72;49.33;101443.44;5094390;28;20032;-62
2022/06/27 07:28:51;;;;;;;16.65;2.92;;;;;;;30.77;48.93;101441.09;5094516;28;20126;-61
2022/06/27 07:31:18;;;;;;;14.80;2.80;;;;;;;30.72;49.14;101438.63;5095622;28;20058;-61
2022/06/27 07:33:48;;;;;;;11.95;2.88;;;;;;;30.71;49.02;101431.41;5094812;28;20040;-61
2022/06/27 07:36:16;;;;;;;11.00;2.83;;;;;;;30.67;49.18;101422.13;5094056;28;20032;-61
2022/06/27 07:38:43;;;;;;;12.25;2.58;;;;;;;30.64;48.88;101434.94;5094982;28;20474;-61
2022/06/27 07:41:13;;;;;;;14.10;2.42;;;;;;;30.69;48.99;101425.34;5096278;28;20036;-61
2022/06/27 07:43:46;;;;;;;8.82;2.65;;;;;;;30.63;49.07;101429.72;5094298;28;20032;-61
2022/06/27 07:46:15;;;;;;;10.13;2.50;;;;;;;30.57;49.45;101425.63;5093568;28;20072;-60
2022/06/27 07:48:42;;;;;;;8.70;2.55;;;;;;;30.62;49.43;101428.91;5101560;28;20034;-60
2022/06/27 07:51:09;;;;;;;8.15;2.20;;;;;;;30.58;49.46;101419.63;5106499;28;20036;-60
2022/06/27 07:53:37;;;;;;;11.43;2.60;;;;;;;30.64;49.03;101420.09;5107811;28;20501;-61
2022/06/27 07:56:06;;;;;;;10.38;2.50;;;;;;;30.65;48.81;101439.34;5098875;28;20028;-63
2022/06/27 07:58:38;;;;;;;13.57;2.83;;;;;;;30.73;48.14;101439.44;5092692;28;20035;-60
2022/06/27 08:01:15;;;;;;;14.50;3.30;;;;;;;30.73;48.29;101457.09;5107559;28;20031;-60
2022/06/27 08:03:44;;;;;;;14.25;2.80;;;;;;;30.80;47.84;101468.38;5103974;28;20126;-60
2022/06/27 08:06:19;;;;;;;12.93;3.35;;;;;;;30.79;48.06;101471.56;5098282;28;20505;-61
2022/06/27 08:08:50;;;;;;;17.23;3.15;;;;;;;30.77;48.19;101474.75;5074035;28;20394;-60
2022/06/27 08:11:19;;;;;;;19.40;2.80;;;;;;;30.75;48.43;101467.91;5073277;28;20081;-60
2022/06/27 08:13:48;;;;;;;20.70;3.00;;;;;;;30.74;48.40;101483.97;5072597;28;20040;-60
2022/06/27 08:16:16;;;;;;;20.35;2.88;;;;;;;30.71;48.51;101472.69;5072770;28;20071;-61
2022/06/27 08:18:44;;;;;;;20.33;3.03;;;;;;;30.66;48.30;101465.41;5084586;28;20048;-60
2022/06/27 08:21:11;;;;;;;21.08;3.13;;;;;;;30.68;48.27;101468.63;5113353;28;20484;-60
2022/06/27 08:23:38;;;;;;;27.95;4.15;;;;;;;30.69;47.79;101467.44;5113800;28;20064;-60
2022/06/27 08:26:08;;;;;;;25.90;3.58;;;;;;;30.65;48.08;101464.59;5115146;28;20044;-60
2022/06/27 08:28:36;;;;;;;28.20;4.05;;;;;;;30.65;48.05;101467.41;5114537;28;20035;-60
2022/06/27 08:31:08;;;;;;;29.13;4.25;;;;;;;30.63;48.13;101458.56;5114135;28;20032;-60
2022/06/27 08:33:35;;;;;;;30.45;4.78;;;;;;;30.70;47.69;101457.81;5114464;28;20042;-61
2022/06/27 08:36:04;;;;;;;26.88;3.58;;;;;;;30.74;47.60;101458.69;5114734;28;20028;-60
2022/06/27 08:38:42;;;;;;;35.28;4.15;;;;;;;30.80;47.15;101456.34;5114197;28;20497;-61
2022/06/27 08:41:11;;;;;;;31.33;3.88;;;;;;;30.86;46.45;101463.22;5114854;28;20035;-59
2022/06/27 08:43:40;;;;;;;38.88;4.10;;;;;;;30.82;46.22;101453.94;5114558;28;20466;-60
2022/06/27 08:46:08;;;;;;;37.58;4.38;;;;;;;30.83;46.57;101449.94;5104116;28;20040;-59
2022/06/27 08:48:39;;;;;;;24.65;3.75;;;;;;;30.79;46.72;101458.34;5098236;28;20499;-59
2022/06/27 08:51:06;;;;;;;28.60;4.10;;;;;;;30.68;47.32;101455.41;5114869;28;20042;-59
2022/06/27 08:53:38;;;;;;;25.58;3.90;;;;;;;30.70;47.72;101449.41;5114914;28;20023;-59
2022/06/27 08:56:12;;;;;;;24.27;3.97;;;;;;;30.67;47.28;101438.97;5100525;27;20372;-59
2022/06/27 08:58:41;;;;;;;39.45;4.18;;;;;;;30.69;47.65;101453.41;5074135;28;20506;-59
2022/06/27 09:01:10;;;;;;;38.25;4.72;;;;;;;30.69;47.77;101445.00;5073973;28;20036;-59
2022/06/27 09:03:36;;;;;;;38.83;4.72;;;;;;;30.66;47.83;101442.97;5073854;28;20024;-59
2022/06/27 09:06:05;;;;;;;48.58;5.70;;;;;;;30.74;46.91;101433.44;5080562;28;20113;-58
2022/06/27 09:09:27;;;;;;;35.00;4.55;;;;;;;30.76;47.04;101441.47;5094107;28;20560;-59
2022/06/27 09:11:49;;;;;;;35.90;4.63;;;;;;;30.66;47.60;101445.75;5092535;28;20056;-59
2022/06/27 09:14:51;;;;;;;34.17;4.78;;;;;;;30.55;47.85;101428.81;5093855;28;20043;-58
2022/06/27 09:17:18;;;;;;;41.25;4.30;;;;;;;30.55;48.05;101436.41;5031590;28;20049;-61
2022/06/27 09:19:54;;;;;;;36.78;4.55;;;;;;;30.57;47.79;101440.44;5074226;28;20028;-61
2022/06/27 09:22:25;;;;;;;34.42;4.78;;;;;;;30.47;47.97;101429.09;5093916;28;20032;-61
2022/06/27 09:25:21;;;;;;;26.13;3.28;;;;;;;30.52;47.82;101439.97;5093663;28;20497;-60
2022/06/27 09:27:51;;;;;;;35.03;4.03;;;;;;;30.50;47.65;101442.34;5093831;28;20398;-61
2022/06/27 09:30:20;;;;;;;28.70;3.22;;;;;;;30.44;47.39;101447.50;5093748;28;20097;-60
2022/06/27 09:32:49;;;;;;;33.42;4.05;;;;;;;30.38;47.73;101444.25;5093572;28;20039;-61
2022/06/27 09:35:36;;;;;;;28.02;3.60;;;;;;;30.46;47.41;101441.50;5093825;28;20089;-60
2022/06/27 09:38:07;;;;;;;30.23;4.40;;;;;;;30.43;47.23;101436.66;5093763;28;20028;-58
2022/06/27 09:40:36;;;;;;;23.85;3.67;;;;;;;30.36;47.60;101443.00;5093301;28;20385;-61
2022/06/27 09:43:04;;;;;;;34.05;3.80;;;;;;;30.35;47.66;101445.00;5093642;28;20039;-60
2022/06/27 09:45:32;;;;;;;16.10;2.83;;;;;;;30.43;47.13;101440.28;5092305;28;20043;-58
2022/06/27 09:48:05;;;;;;;21.45;3.35;;;;;;;30.41;47.59;101439.06;5093492;28;20067;-61
2022/06/27 09:50:36;;;;;;;17.85;3.33;;;;;;;30.40;47.56;101438.25;5073222;28;20033;-60
2022/06/27 09:53:04;;;;;;;23.88;3.33;;;;;;;30.38;47.96;101430.22;5073112;28;20039;-61
2022/06/27 09:55:31;;;;;;;20.42;3.33;;;;;;;30.40;47.88;101415.00;5073171;28;20387;-61
2022/06/27 09:57:59;;;;;;;16.55;2.70;;;;;;;30.19;48.28;101404.34;5073064;28;20024;-61
2022/06/27 10:00:27;;;;;;;24.15;3.65;;;;;;;30.29;48.46;101414.88;5073226;28;20437;-61
2022/06/27 10:02:55;;;;;;;20.60;3.30;;;;;;;30.20;48.59;101401.16;5072991;28;20474;-62
2022/06/27 10:05:22;;;;;;;16.42;2.70;;;;;;;30.17;48.96;101410.34;5073079;28;20048;-61
2022/06/27 10:08:00;;;;;;;15.57;2.40;;;;;;;30.23;48.94;101403.19;5072888;28;20060;-61
2022/06/27 10:10:30;;;;;;;11.85;2.58;;;;;;;30.25;48.63;101391.59;5073000;28;20541;-58
2022/06/27 10:13:04;;;;;;;11.10;1.98;;;;;;;30.29;48.46;101387.63;5073043;28;20474;-60
2022/06/27 10:15:33;;;;;;;10.07;2.17;;;;;;;30.28;48.54;101394.44;5073082;28;20097;-61
2022/06/27 10:18:02;;;;;;;14.45;2.75;;;;;;;30.26;48.73;101402.41;5072953;28;20020;-61
2022/06/27 10:20:36;;;;;;;15.65;2.70;;;;;;;30.34;48.55;101400.50;5111056;28;20032;-61
2022/06/27 10:23:09;;;;;;;19.20;2.95;;;;;;;30.26;49.11;101405.22;5113503;28;20035;-61
2022/06/27 10:25:38;;;;;;;17.30;3.13;;;;;;;30.24;49.11;101393.59;5113399;28;20363;-60
2022/06/27 10:28:12;;;;;;;23.27;3.20;;;;;;;30.17;49.03;101396.31;5113440;28;20051;-61
2022/06/27 10:30:59;;;;;;;15.15;2.92;;;;;;;30.20;48.46;101398.34;5113371;28;20028;-60
2022/06/27 10:33:25;;;;;;;18.13;2.70;;;;;;;30.31;48.49;101401.25;5113372;28;20163;-60
2022/06/27 10:35:59;;;;;;;17.27;3.10;;;;;;;30.27;48.67;101406.84;5113505;28;20043;-60
2022/06/27 10:38:26;;;;;;;18.77;3.20;;;;;;;30.35;48.54;101416.97;5113365;28;20039;-61
2022/06/27 10:40:55;;;;;;;14.13;3.28;;;;;;;30.21;49.14;101408.38;5102215;28;20425;-61
2022/06/27 10:43:40;;;;;;;11.25;2.50;;;;;;;30.18;49.50;101403.53;5093149;28;20035;-60
2022/06/27 10:46:09;;;;;;;16.27;2.35;;;;;;;30.17;49.36;101407.53;5092820;28;20044;-60
2022/06/27 10:48:38;;;;;;;11.50;2.17;;;;;;;30.17;49.25;101398.31;5094665;28;20059;-60
2022/06/27 10:51:30;;;;;;;13.20;2.33;;;;;;;30.16;49.48;101405.09;5113172;28;20036;-60
2022/06/27 10:54:06;;;;;;;9.82;2.10;;;;;;;30.19;49.16;101399.53;5116600;28;20088;-60
2022/06/27 10:56:37;;;;;;;12.15;2.30;;;;;;;30.08;49.44;101402.19;5117358;28;20075;-60
2022/06/27 10:59:28;;;;;;;11.18;2.65;;;;;;;30.04;49.06;101397.75;5117279;28;20044;-60
2022/06/27 11:01:57;;;;;;;14.93;2.35;;;;;;;30.10;49.08;101407.44;5116906;28;20036;-60
2022/06/27 11:04:28;;;;;;;12.27;2.40;;;;;;;30.09;49.17;101400.22;5117419;28;20027;-60
2022/06/27 11:07:04;;;;;;;11.10;1.83;;;;;;;30.12;49.57;101405.03;5116814;28;20070;-60
2022/06/27 11:09:43;;;;;;;9.95;2.30;;;;;;;30.15;49.96;101397.88;5117049;28;20034;-60
2022/06/27 11:12:12;;;;;;;9.45;2.03;;;;;;;30.05;50.76;101416.19;5116932;28;20036;-60
2022/06/27 11:14:48;;;;;;;10.82;2.17;;;;;;;30.04;51.02;101406.16;5117184;28;20020;-59
2022/06/27 11:17:33;;;;;;;11.15;2.25;;;;;;;30.10;51.03;101429.84;5116700;28;20039;-60
2022/06/27 11:20:17;;;;;;;;;;;;;;;30.07;50.93;101444.63;5102975;28;20553;-60
2022/06/27 11:22:51;;;;;;;6.88;2.20;;;;;;;30.05;50.83;101450.63;5096296;28;20393;-60
2022/06/27 11:25:22;;;;;;;11.67;2.20;;;;;;;30.03;50.77;101449.38;5096278;28;20032;-60
2022/06/27 11:33:42;;;;;;;10.73;3.33;;;;;;;29.63;52.43;101453.63;5095746;28;20040;-60
2022/06/27 11:36:12;;;;;;;13.55;4.00;;;;;;;29.63;52.40;101456.41;5095654;28;20040;-61
2022/06/27 11:38:47;;;;;;;10.63;3.13;;;;;;;29.51;53.06;101451.00;5095885;28;20036;-61
2022/06/27 11:41:16;;;;;;;17.38;3.60;;;;;;;29.38;53.02;101455.16;5095876;28;20039;-60